Terminal Aerodrome Forecast
Issued by NWS Albany, NY

Home | Current Version | Previous Version | Text Only | Print | Product List | Glossary On
Versions: 1 2 3 4 5 6 7 8 9 10 11 12 13 14 15
000
FTUS41 KALY 292338
TAFPOU
TAF
KPOU 292338Z 3000/3024 26004KT P6SM SKC
     FM300200 00000KT P6SM SKC
     FM300800 18003KT 5SM BR SCT006 BKN015 BKN250
     FM301400 21006KT P6SM SCT015 BKN040
     FM301800 23007KT P6SM VCSH BKN040 BKN150 PROB30 3019/3023 3SM
      -TSRA BR BKN030CB=

USA.gov is the U.S. government's official web portal to all federal, state and local government web resources and services.